createdAt,value
2019-04-06T00:04:55.812Z,137.03
2019-04-06T00:10:02.716Z,146.30
2019-04-06T00:15:09.762Z,142.97
2019-04-06T00:20:16.340Z,147.27
2019-04-06T00:25:22.879Z,140.97
2019-04-06T00:30:32.123Z,141.73
2019-04-06T00:35:40.148Z,140.83
2019-04-06T00:40:51.032Z,138.33
2019-04-06T00:45:58.117Z,133.67
2019-04-06T00:51:05.087Z,155.07
2019-04-06T00:56:13.243Z,143.93
2019-04-06T01:01:19.914Z,154.00
2019-04-06T01:06:26.772Z,151.87
2019-04-06T01:11:33.930Z,159.37
2019-04-06T01:16:41.213Z,145.87
2019-04-06T01:21:49.234Z,131.47
2019-04-06T01:26:56.308Z,126.17
2019-04-06T01:32:03.232Z,131.77
2019-04-06T01:37:10.418Z,131.13
2019-04-06T01:42:20.068Z,133.10
2019-04-06T01:47:28.479Z,128.93
2019-04-06T01:52:35.608Z,128.73
2019-04-06T01:57:43.827Z,126.50
2019-04-06T02:02:52.571Z,141.57
2019-04-06T02:07:59.238Z,128.23
2019-04-06T02:13:05.859Z,124.77
2019-04-06T02:18:12.655Z,132.20
2019-04-06T02:23:19.123Z,129.80
2019-04-06T02:28:27.446Z,130.40
2019-04-06T02:33:51.340Z,134.43
2019-04-06T02:39:00.637Z,129.07
2019-04-06T02:44:10.090Z,138.70
2019-04-06T02:49:18.262Z,132.40
2019-04-06T02:54:25.288Z,127.33
2019-04-06T02:59:32.473Z,118.17
2019-04-06T03:04:39.588Z,125.23
2019-04-06T03:09:47.612Z,126.60
2019-04-06T03:14:54.786Z,119.97
2019-04-06T03:20:02.469Z,122.13
2019-04-06T03:25:10.763Z,132.93
2019-04-06T03:30:18.529Z,120.77
2019-04-06T03:35:25.726Z,132.37
2019-04-06T03:40:31.704Z,119.33
2019-04-06T03:45:39.126Z,118.87
2019-04-06T03:50:47.268Z,124.93
2019-04-06T03:55:55.504Z,118.77
2019-04-06T04:01:02.422Z,122.47
2019-04-06T04:06:09.254Z,120.50
2019-04-06T04:11:17.275Z,120.53
2019-04-06T04:16:24.371Z,132.93
2019-04-06T04:21:30.544Z,114.83
2019-04-06T04:26:37.651Z,117.83
2019-04-06T04:31:44.732Z,115.03
2019-04-06T04:36:51.689Z,109.53
2019-04-06T04:41:58.621Z,118.47
2019-04-06T04:47:05.504Z,112.10
2019-04-06T04:52:12.383Z,110.37
2019-04-06T04:57:20.935Z,105.80
2019-04-06T05:02:29.266Z,113.60
2019-04-06T05:07:36.662Z,105.80
2019-04-06T05:12:43.253Z,110.67
2019-04-06T05:18:09.703Z,122.03
2019-04-06T05:23:20.358Z,118.97
2019-04-06T05:28:28.917Z,103.77
2019-04-06T05:33:36.253Z,111.93
2019-04-06T05:38:42.393Z,133.60
2019-04-06T05:43:52.059Z,138.77
2019-04-06T05:48:59.066Z,136.47
2019-04-06T05:54:06.026Z,137.53
2019-04-06T05:59:12.945Z,155.23
2019-04-06T06:04:21.470Z,160.47
2019-04-06T06:09:29.183Z,148.67
2019-04-06T06:14:35.299Z,148.90
2019-04-06T06:19:43.764Z,140.33
2019-04-06T06:24:50.446Z,116.53
2019-04-06T06:29:58.018Z,101.73
2019-04-06T06:35:07.979Z,74.73
2019-04-06T06:40:16.458Z,72.27
2019-04-06T06:45:24.935Z,65.43
2019-04-06T06:50:30.995Z,64.23
2019-04-06T06:55:39.160Z,67.10
2019-04-06T07:00:45.895Z,50.80
2019-04-06T07:05:53.810Z,57.63
2019-04-06T07:11:00.414Z,50.10
2019-04-06T07:16:08.218Z,49.93
2019-04-06T07:21:17.281Z,39.53
2019-04-06T07:26:24.631Z,38.00
2019-04-06T07:31:32.586Z,33.23
2019-04-06T07:36:40.949Z,35.30
2019-04-06T07:41:51.623Z,31.27
2019-04-06T07:46:59.378Z,34.10
2019-04-06T07:52:07.117Z,30.43
2019-04-06T07:57:14.930Z,29.87
2019-04-06T08:02:22.970Z,32.23
2019-04-06T08:07:30.477Z,33.13
2019-04-06T08:12:39.500Z,32.67
2019-04-06T08:17:46.465Z,25.33
2019-04-06T08:22:53.490Z,28.83
2019-04-06T08:27:59.649Z,22.27
2019-04-06T08:33:06.255Z,22.03
2019-04-06T08:38:14.071Z,27.63
2019-04-06T08:43:21.138Z,26.03
2019-04-06T08:48:27.144Z,24.57
2019-04-06T08:53:33.372Z,28.20
2019-04-06T08:58:40.845Z,26.73
2019-04-06T09:03:49.146Z,27.97
2019-04-06T09:08:57.604Z,28.57
2019-04-06T09:14:07.200Z,25.23
2019-04-06T09:19:15.682Z,26.50
2019-04-06T09:24:23.782Z,24.57
2019-04-06T09:29:31.120Z,28.60
2019-04-06T09:34:39.834Z,23.60
2019-04-06T09:39:46.417Z,27.23
2019-04-06T09:44:57.001Z,25.63
2019-04-06T09:50:18.969Z,41.40
2019-04-06T09:55:34.739Z,21.23
2019-04-06T10:00:58.530Z,24.10
2019-04-06T10:06:18.030Z,23.27
2019-04-06T10:11:42.945Z,23.73
2019-04-06T10:17:07.537Z,25.60
2019-04-06T10:22:35.838Z,23.63
2019-04-06T10:27:49.072Z,26.20
2019-04-06T10:33:10.720Z,26.37
2019-04-06T10:38:29.505Z,26.27
2019-04-06T10:43:37.149Z,24.67
2019-04-06T10:48:45.856Z,31.10
2019-04-06T10:54:03.685Z,26.20
2019-04-06T10:59:31.086Z,28.87
2019-04-06T11:04:47.152Z,32.03
2019-04-06T11:10:11.162Z,30.17
2019-04-06T11:15:21.235Z,29.60
2019-04-06T11:20:29.870Z,29.47
2019-04-06T11:25:50.371Z,31.87
2019-04-06T11:31:01.379Z,31.53
2019-04-06T11:36:12.565Z,34.93
2019-04-06T11:41:22.747Z,31.90
2019-04-06T11:46:35.987Z,34.63
2019-04-06T11:51:43.574Z,31.80
2019-04-06T11:57:03.467Z,32.30
2019-04-06T12:02:23.902Z,32.67
2019-04-06T12:07:35.379Z,34.53
2019-04-06T12:13:00.195Z,38.80
2019-04-06T12:18:26.857Z,38.93
2019-04-06T12:23:34.472Z,47.50
2019-04-06T12:28:59.565Z,34.60
2019-04-06T12:34:14.471Z,43.13
2019-04-06T12:39:51.397Z,42.50
2019-04-06T12:45:26.210Z,35.83
2019-04-06T12:50:50.537Z,34.93
2019-04-06T12:56:18.086Z,31.10
2019-04-06T13:01:27.739Z,33.80
2019-04-06T13:06:35.352Z,32.50
2019-04-06T13:11:56.213Z,39.17
2019-04-06T13:17:22.731Z,33.43
2019-04-06T13:22:47.539Z,31.03
2019-04-06T13:27:56.266Z,31.17
2019-04-06T13:33:20.437Z,27.70
2019-04-06T13:38:38.228Z,29.37
2019-04-06T13:44:03.256Z,29.00
2019-04-06T13:49:11.378Z,26.77
2019-04-06T13:54:26.258Z,29.13
2019-04-06T13:59:42.557Z,59.20
2019-04-06T14:04:59.702Z,29.13
2019-04-06T14:10:10.106Z,60.23
2019-04-06T14:15:19.911Z,27.10
2019-04-06T14:20:46.276Z,57.27
2019-04-06T14:25:55.113Z,29.03
2019-04-06T14:31:12.252Z,28.83
2019-04-06T14:36:36.654Z,29.30
2019-04-06T14:41:56.453Z,29.30
2019-04-06T14:47:20.857Z,30.87
2019-04-06T14:52:35.425Z,29.70
2019-04-06T14:58:03.705Z,28.63
2019-04-06T15:03:12.565Z,28.53
2019-04-06T15:08:37.798Z,31.10
2019-04-06T15:13:47.764Z,27.60
2019-04-06T15:19:11.533Z,32.37
2019-04-06T15:24:19.988Z,39.00
2019-04-06T15:29:35.334Z,105.27
2019-04-06T15:34:51.663Z,25.20
2019-04-06T15:40:01.398Z,28.73
2019-04-06T15:45:09.863Z,25.67
2019-04-06T15:50:24.329Z,27.83
2019-04-06T15:55:42.099Z,28.83
2019-04-06T16:00:51.973Z,26.97
2019-04-06T16:06:01.295Z,33.00
2019-04-06T16:11:09.756Z,50.50
2019-04-06T16:16:36.091Z,30.20
2019-04-06T16:21:50.659Z,29.97
2019-04-06T16:26:58.993Z,43.03
2019-04-06T16:32:12.760Z,30.97
2019-04-06T16:37:36.307Z,34.80
2019-04-06T16:42:46.033Z,68.77
2019-04-06T16:47:56.382Z,38.97
2019-04-06T16:53:11.845Z,35.90
2019-04-06T16:58:38.904Z,32.63
2019-04-06T17:04:02.278Z,32.00
2019-04-06T17:09:15.629Z,75.80
2019-04-06T17:14:39.307Z,36.23
2019-04-06T17:20:05.772Z,38.47
2019-04-06T17:25:25.976Z,43.40
2019-04-06T17:30:36.318Z,36.70
2019-04-06T17:36:04.138Z,42.57
2019-04-06T17:41:13.885Z,149.60
2019-04-06T17:46:36.868Z,75.60
2019-04-06T17:51:55.629Z,71.63
2019-04-06T17:57:10.325Z,35.67
2019-04-06T18:02:24.621Z,34.37
2019-04-06T18:07:40.495Z,32.00
2019-04-06T18:13:06.749Z,33.20
2019-04-06T18:18:16.308Z,30.77
2019-04-06T18:23:24.811Z,40.60
2019-04-06T18:28:34.128Z,38.00
2019-04-06T18:33:42.360Z,37.43
2019-04-06T18:38:55.939Z,31.23
2019-04-06T18:44:05.778Z,33.27
2019-04-06T18:49:14.536Z,32.70
2019-04-06T18:54:22.261Z,30.50
2019-04-06T18:59:32.446Z,35.47
2019-04-06T19:04:40.677Z,32.50
2019-04-06T19:09:49.930Z,35.90
2019-04-06T19:14:57.849Z,31.80
2019-04-06T19:20:08.085Z,33.93
2019-04-06T19:25:18.121Z,31.30
2019-04-06T19:30:27.047Z,39.40
2019-04-06T19:35:34.668Z,32.83
2019-04-06T19:40:43.807Z,32.17
2019-04-06T19:45:52.913Z,29.80
2019-04-06T19:51:01.168Z,33.00
2019-04-06T19:56:08.137Z,30.80
2019-04-06T20:01:16.928Z,33.90
2019-04-06T20:06:27.143Z,32.57
2019-04-06T20:11:38.130Z,33.13
2019-04-06T20:16:46.431Z,34.00
2019-04-06T20:21:54.714Z,28.80
2019-04-06T20:27:05.662Z,30.30
2019-04-06T20:32:14.328Z,28.37
2019-04-06T20:37:22.151Z,29.53
2019-04-06T20:42:30.483Z,28.50
2019-04-06T20:47:37.684Z,28.20
2019-04-06T20:52:45.999Z,26.17
2019-04-06T20:57:53.150Z,28.83
2019-04-06T21:03:05.184Z,28.33
2019-04-06T21:08:12.176Z,26.70
2019-04-06T21:13:18.746Z,26.67
2019-04-06T21:18:26.767Z,25.17
2019-04-06T21:23:36.611Z,23.20
2019-04-06T21:28:45.567Z,23.53
2019-04-06T21:33:53.785Z,25.87
2019-04-06T21:39:01.567Z,22.57
2019-04-06T21:44:11.223Z,24.40
2019-04-06T21:49:19.003Z,23.50
2019-04-06T21:54:26.590Z,24.87
2019-04-06T21:59:35.614Z,26.43
2019-04-06T22:04:42.951Z,21.40
2019-04-06T22:09:50.462Z,24.87
2019-04-06T22:14:58.131Z,23.43
2019-04-06T22:20:05.205Z,23.70
2019-04-06T22:25:12.221Z,19.43
2019-04-06T22:30:19.929Z,22.80
2019-04-06T22:35:27.068Z,23.13
2019-04-06T22:40:34.871Z,23.57
2019-04-06T22:45:43.730Z,23.83
2019-04-06T23:09:11.008Z,26.03
2019-04-06T23:14:18.248Z,27.17
2019-04-06T23:19:27.117Z,25.80
2019-04-06T23:24:34.987Z,26.93
2019-04-06T23:29:41.894Z,26.87
2019-04-06T23:34:57.778Z,25.70
2019-04-06T23:39:59.072Z,27.20
2019-04-06T23:45:08.252Z,28.20
2019-04-06T23:50:17.869Z,28.83
2019-04-06T23:55:26.188Z,30.70
